createdAt,value
2023-04-20T00:02:21.798Z,100593.31
2023-04-20T00:04:54.621Z,100591.79
2023-04-20T00:07:27.486Z,100598.34
2023-04-20T00:09:59.843Z,100596.01
2023-04-20T00:12:32.264Z,100593.98
2023-04-20T00:15:05.118Z,100588.41
2023-04-20T00:17:38.532Z,100583.29
2023-04-20T00:20:13.047Z,100589.56
2023-04-20T00:22:45.430Z,100587.67
2023-04-20T00:25:17.880Z,100589.13
2023-04-20T00:27:50.226Z,100587.34
2023-04-20T00:30:22.848Z,100587.83
2023-04-20T00:32:55.285Z,100587.25
2023-04-20T00:35:27.745Z,100596.29
2023-04-20T00:38:00.079Z,100593.09
2023-04-20T00:40:32.320Z,100583.98
2023-04-20T00:43:14.219Z,100581.79
2023-04-20T00:45:47.027Z,100580.23
2023-04-20T00:48:19.911Z,100582.52
2023-04-20T00:50:53.525Z,100582.85
2023-04-20T00:53:26.015Z,100579.03
2023-04-20T00:55:58.479Z,100580.58
2023-04-20T00:58:31.035Z,100577.10
2023-04-20T01:01:05.039Z,100581.66
2023-04-20T01:03:38.125Z,100581.83
2023-04-20T01:06:12.136Z,100580.67
2023-04-20T01:08:50.781Z,100579.70
2023-04-20T01:11:23.156Z,100576.33
2023-04-20T01:13:55.561Z,100572.02
2023-04-20T01:16:28.088Z,100572.35
2023-04-20T01:19:00.631Z,100568.92
2023-04-20T01:21:32.922Z,100562.22
2023-04-20T01:24:05.671Z,100560.80
2023-04-20T01:26:38.081Z,100563.06
2023-04-20T01:29:11.527Z,100566.46
2023-04-20T01:31:43.904Z,100563.64
2023-04-20T01:34:17.776Z,100566.06
2023-04-20T01:36:50.714Z,100564.88
2023-04-20T01:39:23.282Z,100566.00
2023-04-20T01:41:55.605Z,100563.98
2023-04-20T01:44:30.168Z,100565.77
2023-04-20T01:47:02.653Z,100565.40
2023-04-20T01:49:35.506Z,100565.89
2023-04-20T01:52:08.286Z,100563.27
2023-04-20T01:54:41.208Z,100565.98
2023-04-20T01:57:13.638Z,100564.55
2023-04-20T01:59:47.169Z,100561.13
2023-04-20T02:02:19.727Z,100564.05
2023-04-20T02:04:53.464Z,100564.27
2023-04-20T02:07:25.906Z,100565.08
2023-04-20T02:09:58.256Z,100566.60
2023-04-20T02:12:30.721Z,100569.54
2023-04-20T02:15:04.401Z,100572.84
2023-04-20T02:17:37.543Z,100570.41
2023-04-20T02:20:13.656Z,100568.74
2023-04-20T02:22:45.984Z,100567.16
2023-04-20T02:25:18.285Z,100567.19
2023-04-20T02:27:51.076Z,100566.75
2023-04-20T02:30:23.802Z,100564.47
2023-04-20T02:32:56.205Z,100564.21
2023-04-20T02:35:28.785Z,100565.36
2023-04-20T02:38:01.053Z,100565.02
2023-04-20T02:40:33.390Z,100558.02
2023-04-20T02:43:05.646Z,100568.59
2023-04-20T02:45:39.243Z,100564.29
2023-04-20T02:48:11.963Z,100561.20
2023-04-20T02:50:45.905Z,100563.43
2023-04-20T02:53:24.545Z,100565.24
2023-04-20T02:56:05.240Z,100566.39
2023-04-20T02:58:53.259Z,100570.73
2023-04-20T03:01:44.351Z,100566.73
2023-04-20T03:04:21.209Z,100569.86
2023-04-20T03:07:01.640Z,100573.40
2023-04-20T03:09:35.724Z,100573.47
2023-04-20T03:12:20.067Z,100574.27
2023-04-20T03:15:13.345Z,100578.02
2023-04-20T03:18:06.436Z,100583.38
2023-04-20T03:20:38.836Z,100584.45
2023-04-20T03:23:11.459Z,100585.94
2023-04-20T03:25:44.868Z,100586.44
2023-04-20T03:28:28.295Z,100590.34
2023-04-20T03:31:01.725Z,100595.73
2023-04-20T03:33:34.558Z,100598.27
2023-04-20T03:36:07.974Z,100596.40
2023-04-20T03:38:42.232Z,100602.27
2023-04-20T03:41:15.189Z,100603.74
2023-04-20T03:43:47.609Z,100601.42
2023-04-20T03:46:22.054Z,100604.29
2023-04-20T03:48:55.481Z,100605.80
2023-04-20T03:51:29.318Z,100611.21
2023-04-20T03:54:03.532Z,100614.08
2023-04-20T03:56:36.245Z,100613.54
2023-04-20T03:59:08.922Z,100614.42
2023-04-20T04:01:42.346Z,100615.33
2023-04-20T04:04:14.900Z,100617.58
2023-04-20T04:06:47.333Z,100626.17
2023-04-20T04:09:19.732Z,100623.31
2023-04-20T04:11:52.165Z,100621.86
2023-04-20T04:14:24.742Z,100620.35
2023-04-20T04:16:57.888Z,100623.05
2023-04-20T04:19:30.700Z,100622.80
2023-04-20T04:22:03.500Z,100626.02
2023-04-20T04:24:39.180Z,100627.86
2023-04-20T04:27:15.700Z,100630.15
2023-04-20T04:29:56.792Z,100636.15
2023-04-20T04:32:29.694Z,100631.77
2023-04-20T04:35:02.320Z,100636.98
2023-04-20T04:37:34.882Z,100642.11
2023-04-20T04:40:10.112Z,100642.35
2023-04-20T04:42:45.524Z,100644.73
2023-04-20T04:45:18.539Z,100641.61
2023-04-20T04:47:53.006Z,100642.48
2023-04-20T04:50:25.470Z,100645.61
2023-04-20T04:52:57.926Z,100648.85
2023-04-20T04:55:30.169Z,100646.09
2023-04-20T04:58:02.813Z,100651.34
2023-04-20T05:00:35.113Z,100647.88
2023-04-20T05:03:07.598Z,100648.27
2023-04-20T05:05:40.142Z,100652.89
2023-04-20T05:08:12.442Z,100654.20
2023-04-20T05:10:45.083Z,100657.04
2023-04-20T05:13:17.447Z,100656.83
2023-04-20T05:15:49.815Z,100656.50
2023-04-20T05:18:22.147Z,100658.11
2023-04-20T05:20:54.456Z,100662.91
2023-04-20T05:23:26.746Z,100665.59
2023-04-20T05:25:59.295Z,100663.86
2023-04-20T05:28:31.689Z,100663.02
2023-04-20T05:31:04.112Z,100662.98
2023-04-20T05:33:36.367Z,100668.86
2023-04-20T05:36:11.316Z,100674.57
2023-04-20T05:38:42.025Z,100680.15
2023-04-20T05:41:14.401Z,100679.00
2023-04-20T05:43:46.714Z,100680.36
2023-04-20T05:46:19.079Z,100681.27
2023-04-20T05:48:52.001Z,100679.39
2023-04-20T05:51:26.033Z,100683.39
2023-04-20T05:53:58.335Z,100683.30
2023-04-20T05:56:30.791Z,100686.77
2023-04-20T05:59:03.388Z,100687.23
2023-04-20T06:01:35.787Z,100688.91
2023-04-20T06:04:08.993Z,100690.05
2023-04-20T06:06:41.790Z,100693.42
2023-04-20T06:09:14.323Z,100699.94
2023-04-20T06:11:46.605Z,100700.45
2023-04-20T06:14:18.961Z,100704.90
2023-04-20T06:16:51.297Z,100702.38
2023-04-20T06:19:23.695Z,100704.73
2023-04-20T06:21:56.031Z,100706.92
2023-04-20T06:24:28.478Z,100708.61
2023-04-20T06:27:01.712Z,100709.48
2023-04-20T06:29:34.040Z,100711.35
2023-04-20T06:32:06.844Z,100710.09
2023-04-20T06:34:39.191Z,100710.85
2023-04-20T06:37:11.841Z,100715.08
2023-04-20T06:39:44.304Z,100715.67
2023-04-20T06:42:16.624Z,100718.28
2023-04-20T06:44:49.361Z,100720.20
2023-04-20T06:47:22.314Z,100718.37
2023-04-20T06:49:54.690Z,100721.79
2023-04-20T06:52:27.325Z,100721.27
2023-04-20T06:55:00.853Z,100721.12
2023-04-20T06:57:33.285Z,100721.87
2023-04-20T07:00:06.262Z,100723.42
2023-04-20T07:02:47.010Z,100723.05
2023-04-20T07:05:20.805Z,100724.45
2023-04-20T07:07:53.054Z,100728.67
2023-04-20T07:10:25.476Z,100725.69
2023-04-20T07:12:57.861Z,100723.42
2023-04-20T07:15:30.187Z,100724.29
2023-04-20T07:18:02.555Z,100724.05
2023-04-20T07:20:35.039Z,100727.77
2023-04-20T07:23:07.466Z,100727.73
2023-04-20T07:25:39.972Z,100731.46
2023-04-20T07:28:12.578Z,100730.48
2023-04-20T07:30:45.087Z,100727.59
2023-04-20T07:33:17.665Z,100726.50
2023-04-20T07:35:49.890Z,100719.62
2023-04-20T07:38:22.243Z,100717.66
2023-04-20T07:40:54.705Z,100722.48
2023-04-20T07:43:27.058Z,100724.70
2023-04-20T07:45:59.404Z,100724.30
2023-04-20T07:48:32.028Z,100730.48
2023-04-20T07:51:04.347Z,100731.52
2023-04-20T07:53:36.670Z,100729.72
2023-04-20T07:56:09.527Z,100734.48
2023-04-20T07:58:41.772Z,100733.07
2023-04-20T08:01:14.097Z,100732.66
2023-04-20T08:03:46.704Z,100729.13
2023-04-20T08:06:19.128Z,100731.52
2023-04-20T08:08:51.519Z,100733.19
2023-04-20T08:11:25.336Z,100733.27
2023-04-20T08:13:58.517Z,100733.66
2023-04-20T08:16:30.988Z,100733.14
2023-04-20T08:19:10.076Z,100737.55
2023-04-20T08:21:43.082Z,100738.45
2023-04-20T08:24:15.769Z,100741.58
2023-04-20T08:26:48.152Z,100739.06
2023-04-20T08:29:21.066Z,100742.56
2023-04-20T08:31:53.333Z,100748.41
2023-04-20T08:34:25.734Z,100745.77
2023-04-20T08:36:58.207Z,100745.73
2023-04-20T08:39:30.590Z,100746.29
2023-04-20T08:42:03.418Z,100750.60
2023-04-20T08:44:35.652Z,100752.15
2023-04-20T08:47:10.109Z,100750.85
2023-04-20T08:49:43.002Z,100752.68
2023-04-20T08:52:15.641Z,100749.89
2023-04-20T08:54:55.827Z,100748.53
2023-04-20T08:57:28.850Z,100747.83
2023-04-20T09:00:01.152Z,100748.10
2023-04-20T09:02:33.555Z,100746.80
2023-04-20T09:05:07.090Z,100747.23
2023-04-20T09:07:39.427Z,100745.96
2023-04-20T09:10:12.465Z,100739.70
2023-04-20T09:12:45.459Z,100738.08
2023-04-20T09:15:29.316Z,100737.41
2023-04-20T09:18:12.089Z,100735.66
2023-04-20T09:20:44.640Z,100734.27
2023-04-20T09:23:18.892Z,100732.66
2023-04-20T09:25:54.048Z,100734.08
2023-04-20T09:28:36.379Z,100732.27
2023-04-20T09:31:18.494Z,100730.62
2023-04-20T09:34:00.781Z,100729.43
2023-04-20T09:36:41.948Z,100722.90
2023-04-20T09:39:16.730Z,100727.38
2023-04-20T09:41:50.192Z,100729.54
2023-04-20T09:44:22.529Z,100728.05
2023-04-20T09:46:55.475Z,100731.23
2023-04-20T09:49:28.709Z,100733.73
2023-04-20T09:52:02.975Z,100730.85
2023-04-20T09:54:38.234Z,100731.65
2023-04-20T09:57:10.840Z,100733.52
2023-04-20T09:59:47.736Z,100727.09
2023-04-20T10:02:20.408Z,100721.27
2023-04-20T10:04:57.342Z,100720.98
2023-04-20T10:07:31.975Z,100720.23
2023-04-20T10:10:10.941Z,100722.78
2023-04-20T10:12:54.290Z,100718.79
2023-04-20T10:15:37.437Z,100728.38
2023-04-20T10:18:20.440Z,100724.33
2023-04-20T10:20:53.629Z,100720.14
2023-04-20T10:23:26.109Z,100722.05
2023-04-20T10:26:03.858Z,100717.98
2023-04-20T10:28:44.980Z,100712.14
2023-04-20T10:31:17.604Z,100709.59
2023-04-20T10:33:55.165Z,100702.07
2023-04-20T10:36:31.345Z,100704.67
2023-04-20T10:39:14.721Z,100702.73
2023-04-20T10:41:59.474Z,100707.30
2023-04-20T10:44:33.210Z,100706.06
2023-04-20T10:47:05.744Z,100700.97
2023-04-20T10:49:38.199Z,100704.27
2023-04-20T10:52:10.951Z,100699.33
2023-04-20T10:54:43.380Z,100698.48
2023-04-20T10:57:19.875Z,100697.17
2023-04-20T10:59:52.111Z,100700.28
2023-04-20T11:02:24.605Z,100688.10
2023-04-20T11:05:01.200Z,100686.56
2023-04-20T11:07:33.606Z,100690.52
2023-04-20T11:10:07.145Z,100697.48
2023-04-20T11:12:42.344Z,100690.92
2023-04-20T11:15:14.875Z,100694.08
2023-04-20T11:17:47.279Z,100691.91
2023-04-20T11:20:19.658Z,100689.66
2023-04-20T11:22:59.865Z,100698.36
2023-04-20T11:25:32.292Z,100695.38
2023-04-20T11:28:10.008Z,100689.54
2023-04-20T11:30:43.303Z,100687.68
2023-04-20T11:33:17.573Z,100685.02
2023-04-20T11:35:50.390Z,100689.56
2023-04-20T11:38:31.580Z,100685.36
2023-04-20T11:41:07.909Z,100690.20
2023-04-20T11:43:40.420Z,100695.79
2023-04-20T11:46:18.414Z,100693.57
2023-04-20T11:48:50.903Z,100686.28
2023-04-20T11:51:23.133Z,100689.21
2023-04-20T11:53:55.576Z,100686.42
2023-04-20T11:56:28.660Z,100685.16
2023-04-20T11:59:00.999Z,100684.45
2023-04-20T12:01:34.061Z,100685.48
2023-04-20T12:04:07.146Z,100679.92
2023-04-20T12:06:39.813Z,100676.62
2023-04-20T12:09:13.569Z,100683.23
2023-04-20T12:11:46.077Z,100682.46
2023-04-20T12:14:18.366Z,100681.05
2023-04-20T12:16:50.661Z,100677.65
2023-04-20T12:19:22.936Z,100677.20
2023-04-20T12:21:55.582Z,100681.42
2023-04-20T12:24:28.000Z,100678.44
2023-04-20T12:27:00.445Z,100674.70
2023-04-20T12:29:33.290Z,100675.08
2023-04-20T12:32:05.764Z,100671.41
2023-04-20T12:34:38.043Z,100673.18
2023-04-20T12:37:10.548Z,100671.05
2023-04-20T12:39:42.966Z,100666.94
2023-04-20T12:42:15.373Z,100667.33
2023-04-20T12:44:47.714Z,100666.53
2023-04-20T12:47:20.052Z,100669.43
2023-04-20T12:49:52.305Z,100665.05
2023-04-20T12:52:24.657Z,100668.24
2023-04-20T12:54:57.040Z,100665.05
2023-04-20T12:57:29.385Z,100658.70
2023-04-20T13:00:02.923Z,100649.72
2023-04-20T13:02:35.641Z,100646.13
2023-04-20T13:05:09.033Z,100642.34
2023-04-20T13:07:41.505Z,100633.17
2023-04-20T13:10:14.001Z,100632.60
2023-04-20T13:12:46.327Z,100640.04
2023-04-20T13:15:31.953Z,100641.82
2023-04-20T13:18:11.377Z,100638.88
2023-04-20T13:20:44.027Z,100649.11
2023-04-20T13:23:16.532Z,100648.77
2023-04-20T13:25:48.878Z,100649.45
2023-04-20T13:28:21.306Z,100648.91
2023-04-20T13:30:54.164Z,100651.96
2023-04-20T13:33:27.048Z,100650.64
2023-04-20T13:35:59.361Z,100650.32
2023-04-20T13:38:31.915Z,100648.05
2023-04-20T13:41:04.297Z,100649.80
2023-04-20T13:43:36.676Z,100650.05
2023-04-20T13:46:09.028Z,100647.88
2023-04-20T13:48:41.485Z,100652.83
2023-04-20T13:51:14.031Z,100652.16
2023-04-20T13:53:48.149Z,100651.04
2023-04-20T13:56:21.140Z,100650.45
2023-04-20T13:58:53.579Z,100647.90
2023-04-20T14:01:26.537Z,100647.60
2023-04-20T14:03:59.215Z,100647.73
2023-04-20T14:06:32.120Z,100651.07
2023-04-20T14:09:04.481Z,100651.80
2023-04-20T14:11:36.810Z,100656.48
2023-04-20T14:14:09.387Z,100655.71
2023-04-20T14:16:47.112Z,100655.80
2023-04-20T14:19:19.700Z,100650.30
2023-04-20T14:21:51.997Z,100652.77
2023-04-20T14:24:24.277Z,100652.46
2023-04-20T14:26:57.151Z,100652.07
2023-04-20T14:29:29.442Z,100650.88
2023-04-20T14:32:01.829Z,100651.86
2023-04-20T14:34:34.481Z,100650.86
2023-04-20T14:37:06.893Z,100652.05
2023-04-20T14:39:39.325Z,100652.85
2023-04-20T14:42:12.603Z,100654.35
2023-04-20T14:44:44.960Z,100652.33
2023-04-20T14:47:17.333Z,100649.27
2023-04-20T14:49:50.355Z,100649.29
2023-04-20T14:52:23.012Z,100649.54
2023-04-20T14:54:55.668Z,100651.69
2023-04-20T14:57:28.006Z,100652.09
2023-04-20T15:00:00.351Z,100652.20
2023-04-20T15:02:32.885Z,100649.58
2023-04-20T15:05:09.445Z,100648.73
2023-04-20T15:07:45.746Z,100650.34
2023-04-20T15:10:18.429Z,100649.97
2023-04-20T15:12:51.182Z,100646.08
2023-04-20T15:15:23.549Z,100645.93
2023-04-20T15:17:56.040Z,100645.88
2023-04-20T15:20:28.554Z,100648.81
2023-04-20T15:23:01.040Z,100649.08
2023-04-20T15:25:33.589Z,100650.08
2023-04-20T15:28:06.040Z,100645.48
2023-04-20T15:30:38.628Z,100643.98
2023-04-20T15:33:11.471Z,100641.77
2023-04-20T15:35:44.240Z,100644.05
2023-04-20T15:38:16.553Z,100639.09
2023-04-20T15:40:48.933Z,100637.08
2023-04-20T15:43:21.354Z,100634.98
2023-04-20T15:45:53.729Z,100629.66
2023-04-20T15:48:26.072Z,100629.84
2023-04-20T15:50:58.358Z,100634.71
2023-04-20T15:53:30.701Z,100630.35
2023-04-20T15:56:03.033Z,100630.35
2023-04-20T15:58:35.777Z,100624.77
2023-04-20T16:01:08.418Z,100624.52
2023-04-20T16:03:41.929Z,100622.34
2023-04-20T16:06:16.612Z,100620.13
2023-04-20T16:08:50.792Z,100618.86
2023-04-20T16:11:23.302Z,100618.80
2023-04-20T16:13:56.196Z,100618.59
2023-04-20T16:16:28.673Z,100622.36
2023-04-20T16:19:01.020Z,100622.04
2023-04-20T16:21:33.348Z,100621.35
2023-04-20T16:24:05.810Z,100622.95
2023-04-20T16:26:39.511Z,100623.50
2023-04-20T16:29:13.190Z,100624.68
2023-04-20T16:31:45.678Z,100622.35
2023-04-20T16:34:18.307Z,100624.23
2023-04-20T16:36:50.884Z,100625.49
2023-04-20T16:39:23.209Z,100624.79
2023-04-20T16:41:55.569Z,100622.04
2023-04-20T16:44:28.311Z,100624.85
2023-04-20T16:47:02.218Z,100627.79
2023-04-20T16:49:34.588Z,100630.02
2023-04-20T16:52:06.917Z,100629.73
2023-04-20T16:54:39.280Z,100634.35
2023-04-20T16:57:11.728Z,100637.31
2023-04-20T16:59:45.292Z,100637.56
2023-04-20T17:02:18.282Z,100641.78
2023-04-20T17:04:50.691Z,100638.12
2023-04-20T17:07:22.987Z,100641.56
2023-04-20T17:09:55.424Z,100637.84
2023-04-20T17:12:28.103Z,100640.22
2023-04-20T17:15:00.867Z,100646.08
2023-04-20T17:17:34.214Z,100644.94
2023-04-20T17:20:08.183Z,100650.48
2023-04-20T17:22:40.417Z,100652.94
2023-04-20T17:25:14.211Z,100653.95
2023-04-20T17:27:46.778Z,100653.81
2023-04-20T17:30:19.218Z,100652.64
2023-04-20T17:32:51.776Z,100652.36
2023-04-20T17:35:24.539Z,100651.23
2023-04-20T17:37:56.849Z,100657.67
2023-04-20T17:40:29.188Z,100657.36
2023-04-20T17:43:01.710Z,100657.65
2023-04-20T17:45:34.110Z,100664.60
2023-04-20T17:48:07.027Z,100667.16
2023-04-20T17:50:39.589Z,100669.17
2023-04-20T17:53:11.884Z,100673.52
2023-04-20T17:55:44.219Z,100673.80
2023-04-20T17:58:17.159Z,100670.31
2023-04-20T18:00:49.584Z,100667.07
2023-04-20T18:03:22.091Z,100671.94
2023-04-20T18:05:54.713Z,100672.40
2023-04-20T18:08:27.076Z,100676.08
2023-04-20T18:10:59.324Z,100676.83
2023-04-20T18:13:31.647Z,100680.86
2023-04-20T18:16:07.403Z,100686.83
2023-04-20T18:18:39.749Z,100690.19
2023-04-20T18:21:14.292Z,100689.61
2023-04-20T18:23:46.696Z,100690.75
2023-04-20T18:26:20.518Z,100692.52
2023-04-20T18:28:52.804Z,100692.14
2023-04-20T18:31:25.312Z,100690.70
2023-04-20T18:33:57.708Z,100694.20
2023-04-20T18:36:30.431Z,100694.75
2023-04-20T18:39:02.752Z,100696.94
2023-04-20T18:41:35.106Z,100695.98
2023-04-20T18:44:08.091Z,100696.19
2023-04-20T18:46:42.249Z,100699.27
2023-04-20T18:49:14.811Z,100699.52
2023-04-20T18:51:47.498Z,100699.93
2023-04-20T18:54:20.073Z,100703.58
2023-04-20T18:56:54.816Z,100703.73
2023-04-20T18:59:27.185Z,100707.33
2023-04-20T19:01:59.627Z,100707.86
2023-04-20T19:04:33.009Z,100708.67
2023-04-20T19:07:05.353Z,100709.16
2023-04-20T19:09:37.604Z,100710.04
2023-04-20T19:12:10.042Z,100708.70
2023-04-20T19:14:43.074Z,100710.33
2023-04-20T19:17:15.771Z,100711.07
2023-04-20T19:19:51.052Z,100709.70
2023-04-20T19:22:23.372Z,100710.92
2023-04-20T19:24:55.777Z,100712.77
2023-04-20T19:27:30.776Z,100712.46
2023-04-20T19:30:03.816Z,100715.36
2023-04-20T19:32:36.232Z,100716.88
2023-04-20T19:35:08.968Z,100716.45
2023-04-20T19:37:42.031Z,100713.54
2023-04-20T19:40:14.823Z,100716.33
2023-04-20T19:42:48.728Z,100716.33
2023-04-20T19:45:21.164Z,100718.52
2023-04-20T19:47:53.535Z,100719.64
2023-04-20T19:50:25.987Z,100719.90
2023-04-20T19:52:58.805Z,100719.88
2023-04-20T19:55:31.184Z,100721.48
2023-04-20T19:58:09.125Z,100720.52
2023-04-20T20:00:41.694Z,100724.48
2023-04-20T20:03:16.200Z,100722.84
2023-04-20T20:05:48.806Z,100726.44
2023-04-20T20:08:21.433Z,100721.84
2023-04-20T20:10:53.886Z,100723.48
2023-04-20T20:13:26.395Z,100719.67
2023-04-20T20:16:00.553Z,100720.47
2023-04-20T20:18:32.848Z,100721.41
2023-04-20T20:21:05.368Z,100723.25
2023-04-20T20:23:37.981Z,100721.14
2023-04-20T20:26:10.463Z,100722.16
2023-04-20T20:28:42.830Z,100721.91
2023-04-20T20:31:15.240Z,100718.45
2023-04-20T20:33:50.484Z,100722.96
2023-04-20T20:36:22.940Z,100720.33
2023-04-20T20:38:56.116Z,100719.52
2023-04-20T20:41:30.630Z,100719.66
2023-04-20T20:44:03.124Z,100720.75
2023-04-20T20:46:35.283Z,100719.39
2023-04-20T20:49:07.763Z,100721.10
2023-04-20T20:51:40.235Z,100725.33
2023-04-20T20:54:12.867Z,100730.26
2023-04-20T20:56:45.258Z,100730.67
2023-04-20T20:59:17.772Z,100732.23
2023-04-20T21:01:50.464Z,100731.27
2023-04-20T21:04:23.179Z,100730.73
2023-04-20T21:06:55.696Z,100729.62
2023-04-20T21:09:28.056Z,100730.67
2023-04-20T21:12:01.109Z,100732.79
2023-04-20T21:14:33.753Z,100729.41
2023-04-20T21:17:06.177Z,100732.48
2023-04-20T21:19:38.532Z,100729.88
2023-04-20T21:22:10.857Z,100729.62
2023-04-20T21:24:43.227Z,100731.51
2023-04-20T21:27:15.674Z,100734.34
2023-04-20T21:29:48.112Z,100730.04
2023-04-20T21:32:20.644Z,100733.73
2023-04-20T21:34:53.166Z,100733.81
2023-04-20T21:37:25.555Z,100735.73
2023-04-20T21:39:57.840Z,100737.11
2023-04-20T21:42:30.711Z,100737.65
2023-04-20T21:45:07.198Z,100736.37
2023-04-20T21:47:39.632Z,100736.73
2023-04-20T21:50:13.181Z,100734.27
2023-04-20T21:52:45.548Z,100736.09
2023-04-20T21:55:17.856Z,100733.02
2023-04-20T21:57:50.301Z,100733.02
2023-04-20T22:00:23.440Z,100735.81
2023-04-20T22:02:56.028Z,100731.71
2023-04-20T22:05:29.508Z,100731.95
2023-04-20T22:08:01.846Z,100732.60
2023-04-20T22:10:34.846Z,100734.27
2023-04-20T22:13:07.305Z,100733.48
2023-04-20T22:15:40.055Z,100738.26
2023-04-20T22:18:13.062Z,100737.10
2023-04-20T22:20:45.666Z,100740.16
2023-04-20T22:23:18.404Z,100739.66
2023-04-20T22:25:50.715Z,100744.43
2023-04-20T22:28:23.055Z,100741.89
2023-04-20T22:30:55.920Z,100741.02
2023-04-20T22:33:28.295Z,100737.73
2023-04-20T22:36:00.830Z,100738.66
2023-04-20T22:38:35.745Z,100735.27
2023-04-20T22:41:06.549Z,100735.91
2023-04-20T22:43:38.852Z,100734.95
2023-04-20T22:46:11.346Z,100735.58
2023-04-20T22:48:47.905Z,100736.34
2023-04-20T22:51:20.781Z,100732.70
2023-04-20T22:53:53.183Z,100739.75
2023-04-20T22:56:25.771Z,100736.98
2023-04-20T22:58:58.086Z,100736.92
2023-04-20T23:01:30.634Z,100737.78
2023-04-20T23:04:03.370Z,100740.11
2023-04-20T23:06:36.462Z,100736.25
2023-04-20T23:09:08.883Z,100739.52
2023-04-20T23:11:41.501Z,100739.77
2023-04-20T23:14:14.221Z,100738.82
2023-04-20T23:16:46.649Z,100738.55
2023-04-20T23:19:19.118Z,100737.45
2023-04-20T23:21:51.584Z,100741.25
2023-04-20T23:24:24.026Z,100741.34
2023-04-20T23:26:56.886Z,100740.83
2023-04-20T23:29:29.167Z,100738.52
2023-04-20T23:32:01.744Z,100741.58
2023-04-20T23:34:34.352Z,100743.36
2023-04-20T23:37:06.621Z,100737.56
2023-04-20T23:39:40.582Z,100732.36
2023-04-20T23:42:12.986Z,100729.31
2023-04-20T23:44:45.455Z,100730.27
2023-04-20T23:47:17.780Z,100737.20
2023-04-20T23:49:50.094Z,100736.88
2023-04-20T23:52:22.410Z,100734.59
2023-04-20T23:54:54.726Z,100737.84
2023-04-20T23:57:27.169Z,100739.88
2023-04-20T23:59:59.659Z,100740.33
